Time;durP1;ratioP1;P1;durP2;ratioP2;P2;SDS_P1;SDS_P2;PMS_P1;PMS_P2;Temp;Humidity;BMP_temperature;BMP_pressure;BME280_temperature;BME280_humidity;BME280_pressure;Samples;Min_cycle;Max_cycle;Signal;HPM_P1;HPM_P2
2023/04/24 00:01:29;;;;;;;24.08;17.67;;;10.30;87.20;;;;;;5003610;28;20038;-80
2023/04/24 00:03:59;;;;;;;29.13;17.10;;;10.30;87.30;;;;;;5007895;28;20018;-80
2023/04/24 00:06:32;;;;;;;23.27;16.48;;;10.30;87.20;;;;;;5005739;28;20060;-79
2023/04/24 00:09:01;;;;;;;24.50;16.38;;;10.30;87.30;;;;;;5004670;28;20049;-79
2023/04/24 00:11:27;;;;;;;19.85;15.00;;;10.30;87.30;;;;;;5004868;28;20455;-78
2023/04/24 00:13:53;;;;;;;19.15;13.70;;;10.30;87.10;;;;;;5011367;28;20033;-78
2023/04/24 00:16:19;;;;;;;15.85;12.82;;;10.30;86.70;;;;;;5001927;28;20043;-79
2023/04/24 00:18:45;;;;;;;16.00;12.25;;;10.10;86.50;;;;;;5003067;28;20557;-79
2023/04/24 00:21:11;;;;;;;16.17;10.48;;;10.10;86.60;;;;;;5003720;28;20117;-79
2023/04/24 00:23:36;;;;;;;14.65;10.70;;;10.10;86.30;;;;;;5004003;28;20037;-79
2023/04/24 00:26:02;;;;;;;13.18;9.80;;;10.00;86.30;;;;;;5008870;28;20037;-78
2023/04/24 00:28:28;;;;;;;11.90;9.52;;;9.90;86.10;;;;;;5007339;28;20021;-79
2023/04/24 00:30:54;;;;;;;12.40;9.75;;;9.80;86.50;;;;;;5005313;28;20029;-79
2023/04/24 00:33:20;;;;;;;14.35;9.68;;;9.70;86.80;;;;;;5003850;28;20022;-78
2023/04/24 00:35:46;;;;;;;12.77;9.15;;;9.70;86.80;;;;;;5004940;28;20410;-79
2023/04/24 00:38:11;;;;;;;11.85;9.55;;;9.80;86.90;;;;;;5007651;28;20113;-79
2023/04/24 00:40:37;;;;;;;12.88;9.70;;;9.80;87.00;;;;;;5010163;28;20100;-78
2023/04/24 00:43:03;;;;;;;11.20;8.98;;;9.70;87.10;;;;;;5014484;28;20423;-78
2023/04/24 00:45:31;;;;;;;10.88;8.90;;;9.80;87.10;;;;;;5015098;28;20045;-79
2023/04/24 00:47:57;;;;;;;11.55;8.35;;;9.70;86.80;;;;;;5014377;28;20025;-78
2023/04/24 00:50:24;;;;;;;11.13;8.63;;;9.70;87.00;;;;;;5013900;28;20053;-78
2023/04/24 00:52:50;;;;;;;12.00;8.98;;;9.70;87.10;;;;;;5014404;28;20049;-79
2023/04/24 00:55:16;;;;;;;12.60;8.82;;;9.70;87.10;;;;;;5011778;28;20071;-78
2023/04/24 00:57:43;;;;;;;11.88;8.77;;;9.70;87.20;;;;;;5015595;28;20054;-78
2023/04/24 01:00:12;;;;;;;13.38;9.15;;;9.70;86.90;;;;;;5005732;28;20033;-79
2023/04/24 01:02:43;;;;;;;12.48;9.50;;;9.70;86.90;;;;;;5012898;28;20112;-78
2023/04/24 01:05:09;;;;;;;13.48;10.27;;;9.70;86.80;;;;;;5008049;28;20006;-78
2023/04/24 01:07:36;;;;;;;14.95;10.68;;;9.70;86.80;;;;;;5017985;28;20033;-76
2023/04/24 01:10:02;;;;;;;14.25;10.00;;;9.70;87.10;;;;;;5010919;28;20022;-77
2023/04/24 01:12:28;;;;;;;14.63;10.60;;;9.70;87.00;;;;;;5003875;28;20367;-80
2023/04/24 01:14:54;;;;;;;15.70;11.93;;;9.70;87.00;;;;;;5009917;28;20455;-79
2023/04/24 01:17:20;;;;;;;14.85;11.63;;;9.60;87.10;;;;;;5000684;28;20489;-79
2023/04/24 01:19:46;;;;;;;16.67;12.70;;;9.70;87.30;;;;;;5005033;28;20034;-79
2023/04/24 01:22:16;;;;;;;15.93;12.35;;;9.70;87.30;;;;;;5006621;28;20051;-79
2023/04/24 01:24:42;;;;;;;16.95;12.73;;;9.70;87.20;;;;;;5001865;28;20130;-80
2023/04/24 01:27:10;;;;;;;17.67;13.25;;;9.70;87.40;;;;;;5006814;28;20049;-80
2023/04/24 01:29:36;;;;;;;17.20;14.38;;;9.70;87.60;;;;;;5004107;28;20014;-79
2023/04/24 01:32:03;;;;;;;22.05;15.45;;;9.70;87.60;;;;;;5005656;28;20079;-79
2023/04/24 01:34:29;;;;;;;21.23;16.00;;;9.60;87.90;;;;;;5004826;28;20024;-78
2023/04/24 01:36:56;;;;;;;23.75;17.48;;;9.70;88.30;;;;;;5000941;28;20541;-79
2023/04/24 01:39:25;;;;;;;20.52;17.60;;;9.70;88.40;;;;;;5000461;28;20014;-80
2023/04/24 01:41:52;;;;;;;24.75;18.52;;;9.60;88.70;;;;;;4998285;28;20044;-78
2023/04/24 01:44:18;;;;;;;22.42;17.98;;;9.60;88.90;;;;;;5009320;28;20025;-79
2023/04/24 01:46:44;;;;;;;24.65;19.05;;;9.60;89.00;;;;;;5013912;28;20049;-78
2023/04/24 01:49:10;;;;;;;23.85;19.27;;;9.60;88.90;;;;;;5028945;28;20020;-78
2023/04/24 01:51:36;;;;;;;22.95;18.33;;;9.60;89.10;;;;;;5029370;28;20045;-77
2023/04/24 01:54:02;;;;;;;23.48;18.60;;;9.60;89.10;;;;;;5023522;28;20459;-79
2023/04/24 01:56:30;;;;;;;22.55;17.45;;;9.60;89.30;;;;;;5003140;28;20802;-79
2023/04/24 01:58:57;;;;;;;25.70;19.05;;;9.60;89.40;;;;;;5006954;28;20018;-79
2023/04/24 02:01:24;;;;;;;25.38;18.58;;;9.60;89.50;;;;;;4997845;28;20047;-79
2023/04/24 02:03:50;;;;;;;26.10;18.77;;;9.60;89.50;;;;;;5007287;28;20501;-77
2023/04/24 02:06:16;;;;;;;22.90;19.48;;;9.50;89.60;;;;;;5001648;28;20038;-79
2023/04/24 02:08:42;;;;;;;30.35;19.77;;;9.50;89.70;;;;;;5005732;28;20022;-78
2023/04/24 02:11:09;;;;;;;28.98;20.45;;;9.50;89.90;;;;;;5021418;28;20037;-79
2023/04/24 02:13:35;;;;;;;28.33;19.58;;;9.50;90.10;;;;;;5010745;28;20108;-77
2023/04/24 02:16:01;;;;;;;28.75;20.42;;;9.50;90.20;;;;;;5002647;28;20376;-79
2023/04/24 02:18:27;;;;;;;27.67;20.90;;;9.50;90.20;;;;;;5010674;28;20508;-80
2023/04/24 02:20:53;;;;;;;29.85;21.65;;;9.50;90.40;;;;;;5005966;28;20018;-77
2023/04/24 02:23:19;;;;;;;23.90;20.45;;;9.50;90.50;;;;;;5008389;28;20015;-78
2023/04/24 02:25:45;;;;;;;28.10;21.95;;;9.50;90.50;;;;;;5001816;28;20625;-78
2023/04/24 02:28:11;;;;;;;25.65;19.05;;;9.40;90.80;;;;;;5012317;28;20022;-79
2023/04/24 02:30:36;;;;;;;20.92;16.15;;;9.50;91.20;;;;;;5009584;28;20036;-79
2023/04/24 02:33:03;;;;;;;24.95;15.50;;;9.40;91.20;;;;;;5010889;28;20032;-77
2023/04/24 02:35:28;;;;;;;23.48;15.27;;;9.50;91.30;;;;;;5005963;28;20026;-78
2023/04/24 02:37:54;;;;;;;19.17;13.38;;;9.60;91.40;;;;;;5007934;28;20470;-78
2023/04/24 02:40:20;;;;;;;18.52;11.70;;;9.60;91.40;;;;;;5013233;28;20034;-79
2023/04/24 02:42:46;;;;;;;16.42;10.60;;;9.50;91.30;;;;;;5013067;28;20038;-78
2023/04/24 02:45:11;;;;;;;14.23;10.15;;;9.60;91.30;;;;;;5018336;28;20427;-80
2023/04/24 02:47:37;;;;;;;15.45;10.18;;;9.50;91.20;;;;;;5015318;28;20129;-80
2023/04/24 02:50:04;;;;;;;15.55;9.82;;;9.50;91.10;;;;;;5017252;28;20468;-78
2023/04/24 02:52:32;;;;;;;14.80;9.05;;;9.50;91.20;;;;;;5015784;28;20057;-78
2023/04/24 02:54:58;;;;;;;14.35;8.63;;;9.60;91.10;;;;;;5013357;28;20029;-79
2023/04/24 02:57:23;;;;;;;16.85;9.20;;;9.50;91.20;;;;;;5018855;28;20571;-79
2023/04/24 02:59:49;;;;;;;17.15;10.70;;;9.50;91.00;;;;;;5017541;28;20057;-79
2023/04/24 03:02:15;;;;;;;15.40;10.07;;;9.50;91.20;;;;;;5017661;28;20038;-79
2023/04/24 03:04:42;;;;;;;16.25;10.77;;;9.50;91.10;;;;;;5014173;28;20026;-79
2023/04/24 03:07:09;;;;;;;16.63;10.32;;;9.50;91.20;;;;;;5022301;28;20045;-78
2023/04/24 03:09:35;;;;;;;18.98;10.57;;;9.40;91.30;;;;;;5014787;28;20041;-76
2023/04/24 03:12:01;;;;;;;17.98;11.95;;;9.40;91.40;;;;;;5015203;28;20378;-80
2023/04/24 03:14:26;;;;;;;18.15;11.05;;;9.40;91.20;;;;;;5015052;28;20025;-77
2023/04/24 03:16:52;;;;;;;16.48;10.48;;;9.30;91.20;;;;;;5006352;28;20564;-77
2023/04/24 03:19:18;;;;;;;18.70;11.93;;;9.40;91.20;;;;;;5017522;28;20068;-78
2023/04/24 03:21:44;;;;;;;21.00;12.38;;;9.30;91.10;;;;;;5021867;28;20034;-76
2023/04/24 03:24:09;;;;;;;18.70;12.50;;;9.20;91.00;;;;;;5018132;28;20373;-77
2023/04/24 03:26:35;;;;;;;17.95;12.93;;;9.20;91.00;;;;;;5024541;28;20494;-77
2023/04/24 03:29:01;;;;;;;19.80;14.23;;;9.20;91.00;;;;;;5011119;28;20036;-77
2023/04/24 03:31:27;;;;;;;20.00;14.80;;;9.20;90.90;;;;;;5014320;28;20686;-77
2023/04/24 03:33:52;;;;;;;25.65;14.55;;;9.20;91.00;;;;;;5016747;28;20850;-77
2023/04/24 03:36:19;;;;;;;24.00;16.42;;;9.20;91.10;;;;;;4999739;28;20487;-79
2023/04/24 03:38:45;;;;;;;24.80;17.23;;;9.20;91.00;;;;;;5005053;28;20037;-77
2023/04/24 03:41:11;;;;;;;34.08;19.60;;;9.10;90.90;;;;;;5008653;28;20045;-76
2023/04/24 03:43:37;;;;;;;28.60;19.33;;;9.10;90.80;;;;;;5004254;28;20034;-78
2023/04/24 03:46:03;;;;;;;27.42;19.88;;;9.10;90.90;;;;;;5005172;28;20712;-78
2023/04/24 03:48:29;;;;;;;30.90;19.90;;;9.10;90.70;;;;;;5007936;28;20037;-79
2023/04/24 03:50:55;;;;;;;29.83;19.92;;;9.10;90.60;;;;;;5008354;28;20255;-78
2023/04/24 03:53:20;;;;;;;28.65;20.17;;;9.20;90.60;;;;;;5005912;28;20119;-76
2023/04/24 03:55:46;;;;;;;27.80;20.27;;;9.10;90.50;;;;;;5019499;28;20022;-78
2023/04/24 03:58:14;;;;;;;34.25;19.55;;;9.10;90.40;;;;;;5004929;28;20244;-77
2023/04/24 04:00:40;;;;;;;32.22;20.25;;;9.10;90.20;;;;;;5007519;28;20037;-79
2023/04/24 04:03:06;;;;;;;30.92;18.90;;;9.10;90.30;;;;;;5008887;28;20179;-77
2023/04/24 04:05:31;;;;;;;32.03;19.30;;;9.10;90.20;;;;;;5004710;28;20509;-76
2023/04/24 04:07:57;;;;;;;26.30;18.00;;;9.10;90.10;;;;;;5006790;28;20037;-77
2023/04/24 04:10:23;;;;;;;32.15;19.13;;;9.00;90.00;;;;;;5005286;28;20321;-78
2023/04/24 04:12:49;;;;;;;27.42;17.90;;;9.00;90.00;;;;;;5005500;28;20065;-77
2023/04/24 04:15:14;;;;;;;30.05;18.00;;;9.00;89.90;;;;;;5008430;28;20030;-77
2023/04/24 04:17:40;;;;;;;28.25;18.02;;;9.00;89.80;;;;;;5004517;28;20052;-78
2023/04/24 04:20:10;;;;;;;32.05;19.65;;;9.00;89.70;;;;;;5001928;28;20022;-77
2023/04/24 04:22:36;;;;;;;24.48;17.20;;;8.90;89.50;;;;;;5001739;28;20389;-77
2023/04/24 04:25:03;;;;;;;28.70;17.27;;;8.90;89.40;;;;;;5005076;28;20021;-77
2023/04/24 04:27:31;;;;;;;28.60;17.13;;;8.90;89.00;;;;;;5006554;28;20053;-78
2023/04/24 04:30:04;;;;;;;25.65;17.88;;;8.80;89.00;;;;;;5017395;28;20029;-82
2023/04/24 04:32:33;;;;;;;25.75;17.00;;;8.80;89.00;;;;;;5007446;28;20104;-78
2023/04/24 04:35:02;;;;;;;23.65;16.95;;;8.80;89.00;;;;;;5005845;28;20026;-78
2023/04/24 04:37:38;;;;;;;27.67;16.38;;;8.90;89.00;;;;;;5002544;28;20042;-77
2023/04/24 04:40:06;;;;;;;26.02;16.30;;;8.80;89.00;;;;;;4996337;28;20768;-78
2023/04/24 04:42:39;;;;;;;27.33;16.35;;;8.80;89.10;;;;;;5006365;28;20061;-76
2023/04/24 04:45:08;;;;;;;27.35;16.15;;;8.80;88.90;;;;;;5008642;28;20064;-78
2023/04/24 04:47:34;;;;;;;25.10;17.65;;;8.80;88.90;;;;;;5013845;28;20056;-76
2023/04/24 04:50:00;;;;;;;24.85;15.82;;;8.80;89.00;;;;;;5009513;28;20034;-78
2023/04/24 04:52:26;;;;;;;23.10;15.90;;;8.80;88.90;;;;;;5002906;28;20125;-77
2023/04/24 04:54:52;;;;;;;23.73;14.73;;;8.80;88.70;;;;;;5004305;28;20445;-78
2023/04/24 04:57:17;;;;;;;27.75;16.90;;;8.80;88.80;;;;;;5012746;28;20072;-78
2023/04/24 04:59:43;;;;;;;23.55;15.43;;;8.90;88.60;;;;;;5006754;28;20383;-78
2023/04/24 05:02:09;;;;;;;25.73;16.02;;;8.90;88.70;;;;;;5002071;28;20616;-77
2023/04/24 05:04:35;;;;;;;23.73;15.98;;;8.90;88.50;;;;;;5000224;28;20033;-78
2023/04/24 05:07:00;;;;;;;24.83;16.30;;;9.00;88.60;;;;;;5004496;28;20049;-76
2023/04/24 05:09:28;;;;;;;26.20;16.52;;;9.00;88.60;;;;;;5004374;28;20476;-80
2023/04/24 05:11:55;;;;;;;31.33;19.15;;;8.90;88.60;;;;;;5002085;28;20030;-79
2023/04/24 05:14:20;;;;;;;25.25;17.73;;;8.80;88.80;;;;;;5005717;28;20463;-78
2023/04/24 05:16:46;;;;;;;32.10;18.13;;;9.00;88.80;;;;;;5006032;28;20145;-77
2023/04/24 05:19:13;;;;;;;31.92;19.55;;;9.00;88.70;;;;;;5008031;28;20050;-77
2023/04/24 05:21:40;;;;;;;29.88;20.58;;;9.00;88.60;;;;;;4990677;28;20030;-79
2023/04/24 05:24:06;;;;;;;30.00;21.05;;;9.00;89.00;;;;;;5005053;28;20029;-78
2023/04/24 05:26:31;;;;;;;36.70;21.17;;;9.10;89.00;;;;;;5000192;28;20037;-78
2023/04/24 05:28:57;;;;;;;33.30;21.25;;;9.10;89.10;;;;;;4997559;28;20023;-81
2023/04/24 05:31:23;;;;;;;34.13;22.17;;;9.10;89.00;;;;;;4999917;28;20037;-78
2023/04/24 05:33:48;;;;;;;36.03;22.67;;;9.00;89.10;;;;;;5000611;28;20030;-80
2023/04/24 05:36:14;;;;;;;36.88;21.92;;;9.10;89.10;;;;;;5008670;28;20041;-79
2023/04/24 05:38:40;;;;;;;35.20;22.15;;;9.10;89.20;;;;;;5000584;28;20017;-80
2023/04/24 05:41:06;;;;;;;38.65;22.45;;;9.10;89.20;;;;;;5008980;28;20030;-80
2023/04/24 05:43:31;;;;;;;41.10;22.63;;;9.10;89.10;;;;;;5006201;28;20022;-77
2023/04/24 05:45:57;;;;;;;34.33;21.80;;;9.10;89.00;;;;;;5006669;28;20464;-79
2023/04/24 05:48:23;;;;;;;33.60;21.33;;;9.20;88.90;;;;;;5009388;28;20085;-76
2023/04/24 05:50:49;;;;;;;33.88;21.02;;;9.20;88.90;;;;;;5007703;28;20029;-78
2023/04/24 05:53:15;;;;;;;33.55;20.75;;;9.20;88.70;;;;;;5002215;28;20079;-78
2023/04/24 05:55:41;;;;;;;34.22;20.67;;;9.30;88.70;;;;;;5004068;28;20105;-78
2023/04/24 05:58:06;;;;;;;32.30;22.13;;;9.30;88.50;;;;;;4995273;28;20029;-79
2023/04/24 06:00:33;;;;;;;31.30;20.08;;;9.30;88.10;;;;;;4998858;28;20064;-78
2023/04/24 06:03:00;;;;;;;34.25;21.58;;;9.40;88.40;;;;;;5002351;28;20026;-78
2023/04/24 06:05:26;;;;;;;31.05;21.70;;;9.30;88.30;;;;;;5008981;28;20445;-78
2023/04/24 06:07:51;;;;;;;31.20;20.30;;;9.40;88.20;;;;;;5002268;28;20053;-78
2023/04/24 06:10:18;;;;;;;35.47;21.00;;;9.50;87.90;;;;;;5005074;28;20025;-79
2023/04/24 06:12:43;;;;;;;33.13;19.88;;;9.40;87.90;;;;;;5007557;28;20339;-75
2023/04/24 06:15:10;;;;;;;30.38;19.38;;;9.50;87.70;;;;;;5001147;28;20576;-74
2023/04/24 06:17:35;;;;;;;29.27;18.40;;;9.60;87.10;;;;;;5014561;28;20109;-74
2023/04/24 06:20:04;;;;;;;29.73;18.20;;;9.60;87.00;;;;;;5026690;28;20037;-73
2023/04/24 06:22:30;;;;;;;31.08;19.98;;;9.60;86.80;;;;;;5022809;28;20026;-73
2023/04/24 06:24:55;;;;;;;33.85;18.90;;;9.70;86.80;;;;;;5007270;28;20448;-73
2023/04/24 06:27:21;;;;;;;24.75;16.02;;;9.70;86.50;;;;;;5002901;28;20050;-75
2023/04/24 06:29:54;;;;;;;25.65;17.10;;;9.80;86.30;;;;;;5001951;28;20445;-74
2023/04/24 06:32:21;;;;;;;29.98;17.65;;;9.80;86.30;;;;;;5001261;28;20095;-74
2023/04/24 06:34:46;;;;;;;29.25;15.93;;;9.90;86.00;;;;;;4994477;28;20029;-74
2023/04/24 06:37:12;;;;;;;24.85;14.65;;;9.80;85.40;;;;;;5005725;28;20113;-74
2023/04/24 06:39:38;;;;;;;26.33;16.27;;;9.80;85.60;;;;;;4997816;28;20454;-74
2023/04/24 06:42:03;;;;;;;28.30;16.27;;;9.70;85.90;;;;;;4995171;28;20260;-73
2023/04/24 06:44:29;;;;;;;25.10;15.07;;;9.70;85.90;;;;;;4999289;28;20118;-74
2023/04/24 06:46:55;;;;;;;27.20;14.05;;;9.80;85.40;;;;;;4997975;28;20061;-73
2023/04/24 06:49:20;;;;;;;26.15;14.02;;;9.70;85.70;;;;;;5001214;28;20496;-73
2023/04/24 06:51:46;;;;;;;30.30;14.88;;;9.70;85.70;;;;;;4993948;28;20077;-73
2023/04/24 06:54:12;;;;;;;24.60;13.60;;;9.80;85.60;;;;;;5011390;28;20056;-74
2023/04/24 06:56:38;;;;;;;23.42;14.65;;;9.70;85.20;;;;;;4999365;28;20125;-74
2023/04/24 06:59:04;;;;;;;22.65;13.43;;;9.80;85.00;;;;;;4992339;28;20137;-74
2023/04/24 07:01:29;;;;;;;26.52;14.57;;;9.90;84.60;;;;;;5010000;28;20265;-74
2023/04/24 07:03:55;;;;;;;24.60;13.57;;;9.90;84.50;;;;;;4999384;28;20125;-73
2023/04/24 07:06:22;;;;;;;21.65;13.45;;;10.10;84.40;;;;;;5000862;28;20057;-73
2023/04/24 07:08:48;;;;;;;23.15;12.20;;;10.20;84.20;;;;;;5003069;28;20037;-73
2023/04/24 07:11:14;;;;;;;19.80;12.25;;;10.10;83.50;;;;;;5002664;28;20030;-73
2023/04/24 07:13:41;;;;;;;20.95;11.48;;;10.10;83.60;;;;;;4996506;28;20026;-73
2023/04/24 07:16:08;;;;;;;21.77;11.35;;;10.00;83.30;;;;;;5000611;28;20496;-74
2023/04/24 07:18:34;;;;;;;23.63;12.68;;;10.00;83.00;;;;;;5012337;28;20032;-73
2023/04/24 07:21:00;;;;;;;23.60;12.80;;;10.00;83.30;;;;;;5011455;28;20398;-73
2023/04/24 07:23:26;;;;;;;20.30;10.60;;;10.20;83.70;;;;;;5017805;28;20109;-73
2023/04/24 07:25:51;;;;;;;20.15;9.70;;;10.30;82.30;;;;;;5020778;28;20061;-73
2023/04/24 07:28:17;;;;;;;18.65;9.85;;;10.30;81.80;;;;;;5022406;28;20034;-73
2023/04/24 07:30:43;;;;;;;21.45;9.68;;;10.40;81.60;;;;;;5015845;28;20156;-73
2023/04/24 07:33:11;;;;;;;15.77;8.73;;;10.60;81.00;;;;;;5002151;28;20014;-73
2023/04/24 07:35:36;;;;;;;17.42;8.15;;;10.70;79.60;;;;;;5006090;28;20030;-73
2023/04/24 07:38:02;;;;;;;17.38;9.55;;;11.00;79.50;;;;;;5003432;28;20022;-73
2023/04/24 07:40:28;;;;;;;19.75;8.75;;;11.00;79.10;;;;;;5006541;28;20548;-74
2023/04/24 07:42:53;;;;;;;18.98;8.85;;;11.00;77.70;;;;;;5019060;28;20117;-73
2023/04/24 07:45:19;;;;;;;15.55;8.10;;;11.00;78.00;;;;;;4997523;28;20026;-73
2023/04/24 07:47:45;;;;;;;15.00;7.63;;;11.20;78.10;;;;;;5003334;28;20146;-73
2023/04/24 07:50:12;;;;;;;18.98;7.60;;;11.40;75.40;;;;;;5008133;28;20520;-73
2023/04/24 07:52:38;;;;;;;15.20;7.22;;;11.30;76.20;;;;;;5001455;28;20046;-74
2023/04/24 07:55:04;;;;;;;13.55;7.20;;;11.10;76.00;;;;;;5001303;28;20080;-74
2023/04/24 07:57:30;;;;;;;13.00;6.85;;;11.10;75.80;;;;;;5006031;28;20351;-74
2023/04/24 07:59:56;;;;;;;18.55;7.07;;;11.30;76.50;;;;;;5011529;28;20552;-73
2023/04/24 08:02:26;;;;;;;16.40;7.38;;;11.20;74.40;;;;;;5004052;28;20123;-75
2023/04/24 08:04:53;;;;;;;18.05;7.88;;;11.20;74.80;;;;;;5000068;28;20116;-74
2023/04/24 08:07:19;;;;;;;19.40;7.70;;;11.30;75.40;;;;;;5004158;28;20030;-73
2023/04/24 08:09:44;;;;;;;17.75;7.35;;;11.00;76.00;;;;;;5009586;28;20379;-74
2023/04/24 08:12:10;;;;;;;16.58;7.63;;;11.10;76.50;;;;;;4995107;28;20026;-73
2023/04/24 08:14:36;;;;;;;15.43;7.40;;;11.10;75.70;;;;;;5010978;28;20032;-73
2023/04/24 08:17:02;;;;;;;15.65;7.95;;;11.20;75.50;;;;;;5003991;28;20541;-74
2023/04/24 08:19:28;;;;;;;14.27;7.78;;;11.70;75.80;;;;;;5007985;28;20428;-74
2023/04/24 08:21:53;;;;;;;17.75;7.45;;;11.80;74.50;;;;;;5003540;28;20045;-74
2023/04/24 08:24:19;;;;;;;18.35;7.40;;;11.80;73.90;;;;;;4998869;28;20084;-73
2023/04/24 08:26:45;;;;;;;15.88;6.68;;;11.60;73.40;;;;;;5016115;28;20030;-75
2023/04/24 08:29:10;;;;;;;15.70;6.70;;;11.60;73.90;;;;;;5003197;28;20442;-74
2023/04/24 08:31:36;;;;;;;15.60;6.80;;;11.50;73.40;;;;;;5000350;28;20109;-74
2023/04/24 08:34:02;;;;;;;15.50;6.63;;;11.50;73.90;;;;;;5004027;28;20418;-74
2023/04/24 08:36:28;;;;;;;16.80;7.10;;;11.40;74.40;;;;;;5012198;28;20030;-73
2023/04/24 08:38:53;;;;;;;15.23;6.97;;;11.20;74.50;;;;;;5002879;28;20455;-73
2023/04/24 08:41:19;;;;;;;17.83;7.43;;;11.30;74.20;;;;;;5011621;28;20052;-73
2023/04/24 08:43:48;;;;;;;12.43;6.72;;;11.30;73.60;;;;;;5009177;28;20030;-73
2023/04/24 08:46:16;;;;;;;14.50;7.05;;;11.20;72.80;;;;;;5008553;28;20059;-73
2023/04/24 08:48:42;;;;;;;13.50;7.03;;;11.20;72.70;;;;;;5001062;28;20029;-73
2023/04/24 08:51:08;;;;;;;15.23;8.07;;;11.20;72.60;;;;;;5000744;28;20049;-73
2023/04/24 08:53:35;;;;;;;15.40;8.23;;;11.30;73.40;;;;;;5003820;28;20454;-73
2023/04/24 08:56:01;;;;;;;17.00;7.85;;;11.20;72.90;;;;;;5006379;28;20030;-73
2023/04/24 08:58:28;;;;;;;25.95;9.23;;;11.30;73.20;;;;;;5007571;28;20037;-73
2023/04/24 09:00:58;;;;;;;17.35;9.63;;;11.10;73.50;;;;;;5005907;28;20450;-74
2023/04/24 09:03:26;;;;;;;20.02;10.48;;;11.10;74.10;;;;;;5008611;28;20627;-73
2023/04/24 09:05:55;;;;;;;18.25;9.82;;;11.30;74.30;;;;;;5001435;28;20017;-73
2023/04/24 09:08:24;;;;;;;17.92;8.95;;;11.00;73.00;;;;;;5003086;28;20076;-73
2023/04/24 09:10:49;;;;;;;18.50;9.02;;;11.10;74.00;;;;;;5005251;28;20025;-74
2023/04/24 09:13:15;;;;;;;15.63;9.20;;;11.10;74.10;;;;;;5010552;28;20014;-74
2023/04/24 09:15:42;;;;;;;15.20;8.77;;;11.20;72.90;;;;;;5003652;28;20080;-73
2023/04/24 09:18:08;;;;;;;18.63;9.93;;;11.20;73.70;;;;;;5004863;28;21009;-74
2023/04/24 09:20:35;;;;;;;15.90;9.48;;;11.30;73.60;;;;;;5004649;28;20033;-74
2023/04/24 09:23:01;;;;;;;16.55;10.27;;;11.60;73.50;;;;;;5001655;28;20033;-73
2023/04/24 09:25:37;;;;;;;16.00;10.38;;;11.90;73.50;;;;;;5003414;28;20018;-73
2023/04/24 09:28:06;;;;;;;13.82;9.45;;;11.80;71.80;;;;;;4996975;28;20045;-74
2023/04/24 09:30:32;;;;;;;17.15;11.05;;;11.80;72.50;;;;;;5002484;28;20121;-74
2023/04/24 09:33:15;;;;;;;18.48;9.70;;;11.60;71.80;;;;;;4995220;28;20030;-73
2023/04/24 09:35:51;;;;;;;15.35;9.68;;;11.50;72.30;;;;;;4993945;28;20022;-74
2023/04/24 09:38:16;;;;;;;15.55;9.40;;;11.50;72.20;;;;;;4997392;28;20030;-73
2023/04/24 09:40:42;;;;;;;17.92;10.43;;;11.50;72.50;;;;;;4995840;28;20025;-74
2023/04/24 09:43:11;;;;;;;18.17;9.95;;;11.50;72.20;;;;;;4997508;28;20026;-73
2023/04/24 09:45:40;;;;;;;20.80;11.50;;;11.60;71.10;;;;;;4999073;28;20092;-74
2023/04/24 09:48:10;;;;;;;14.82;10.02;;;11.60;71.80;;;;;;4994886;28;20484;-74
2023/04/24 09:50:36;;;;;;;19.45;10.88;;;11.80;71.70;;;;;;5009829;28;20037;-75
2023/04/24 09:53:03;;;;;;;13.95;9.70;;;11.60;71.20;;;;;;4994649;28;20061;-74
2023/04/24 09:55:32;;;;;;;15.63;10.20;;;11.70;71.60;;;;;;4997368;28;20017;-74
2023/04/24 09:58:00;;;;;;;17.88;10.52;;;12.00;71.60;;;;;;4993930;28;20046;-74
2023/04/24 10:00:28;;;;;;;14.77;9.68;;;12.00;70.40;;;;;;5000495;28;20026;-74
2023/04/24 10:02:58;;;;;;;21.42;10.27;;;11.80;69.90;;;;;;4991642;28;20034;-73
2023/04/24 10:05:34;;;;;;;15.32;9.55;;;11.70;70.60;;;;;;5002187;28;20161;-75
2023/04/24 10:08:04;;;;;;;18.48;10.63;;;11.60;70.30;;;;;;5002964;28;20084;-76
2023/04/24 10:10:31;;;;;;;18.38;11.00;;;11.80;71.00;;;;;;4995385;28;20049;-74
2023/04/24 10:12:57;;;;;;;18.30;10.25;;;12.10;69.90;;;;;;5003353;28;20030;-73
2023/04/24 10:15:24;;;;;;;17.88;10.18;;;12.00;69.60;;;;;;5006890;28;20299;-74
2023/04/24 10:17:54;;;;;;;16.13;10.55;;;12.00;70.10;;;;;;5004192;28;20385;-73
2023/04/24 10:20:25;;;;;;;15.73;11.13;;;12.10;70.70;;;;;;5007578;28;20078;-73
2023/04/24 10:22:54;;;;;;;15.85;10.02;;;11.90;70.70;;;;;;5008413;28;20030;-73
2023/04/24 10:25:21;;;;;;;17.95;11.02;;;11.80;70.80;;;;;;5005661;28;20554;-73
2023/04/24 10:27:48;;;;;;;19.30;10.93;;;11.80;71.30;;;;;;5002202;28;20030;-73
2023/04/24 10:30:15;;;;;;;18.05;11.10;;;12.10;70.80;;;;;;5005972;28;20025;-74
2023/04/24 10:32:40;;;;;;;18.73;10.13;;;12.10;71.20;;;;;;5002349;28;20030;-73
2023/04/24 10:35:07;;;;;;;21.33;11.10;;;12.00;70.60;;;;;;4999669;28;20024;-73
2023/04/24 10:38:05;;;;;;;17.20;10.77;;;12.10;71.00;;;;;;5001658;28;20549;-73
2023/04/24 10:40:33;;;;;;;15.65;10.45;;;11.70;71.00;;;;;;4997406;28;20458;-74
2023/04/24 10:43:01;;;;;;;16.92;10.73;;;11.70;70.80;;;;;;5003770;28;20053;-74
2023/04/24 10:45:27;;;;;;;18.17;9.85;;;11.70;70.80;;;;;;5005156;28;20116;-75
2023/04/24 10:47:58;;;;;;;15.95;10.02;;;11.90;70.60;;;;;;5004900;28;20349;-74
2023/04/24 10:50:25;;;;;;;14.77;9.40;;;11.90;70.10;;;;;;5008535;28;20017;-74
2023/04/24 10:52:52;;;;;;;15.48;9.73;;;12.00;70.10;;;;;;5003262;28;20030;-74
2023/04/24 10:55:42;;;;;;;16.13;9.52;;;12.10;70.10;;;;;;5008924;28;20025;-74
2023/04/24 10:58:08;;;;;;;14.93;9.30;;;12.40;69.80;;;;;;5007259;28;20045;-74
2023/04/24 11:00:37;;;;;;;17.00;9.55;;;12.40;68.30;;;;;;5006857;28;20033;-75
2023/04/24 11:03:05;;;;;;;18.08;9.70;;;12.70;69.30;;;;;;5006226;28;20030;-73
2023/04/24 11:05:59;;;;;;;14.52;9.07;;;12.80;68.60;;;;;;5004237;28;20531;-73
2023/04/24 11:08:30;;;;;;;15.45;9.07;;;12.70;67.60;;;;;;5022373;28;20136;-73
2023/04/24 11:11:02;;;;;;;17.52;9.88;;;12.90;68.20;;;;;;5005766;28;20029;-73
2023/04/24 11:13:54;;;;;;;14.63;9.07;;;13.10;67.80;;;;;;5009467;28;20024;-74
2023/04/24 11:16:22;;;;;;;16.48;9.43;;;13.30;66.50;;;;;;5006259;28;20156;-74
2023/04/24 11:19:28;;;;;;;13.95;7.88;;;13.40;66.90;;;;;;5017286;28;20462;-74
2023/04/24 11:22:03;;;;;;;14.75;8.38;;;13.20;66.10;;;;;;5005703;28;20128;-74
2023/04/24 11:24:35;;;;;;;12.98;8.10;;;13.50;67.00;;;;;;5011196;28;20014;-73
2023/04/24 11:27:09;;;;;;;12.80;7.38;;;13.90;65.90;;;;;;5005101;28;20080;-73
2023/04/24 11:29:40;;;;;;;12.63;7.53;;;14.10;64.50;;;;;;5013836;28;20021;-74
2023/04/24 11:32:27;;;;;;;12.57;6.80;;;14.40;65.10;;;;;;5003531;28;20033;-74
2023/04/24 11:34:56;;;;;;;11.88;7.32;;;14.40;63.30;;;;;;5004705;28;20021;-74
2023/04/24 11:37:42;;;;;;;13.65;6.20;;;14.60;63.50;;;;;;5011314;28;20053;-75
2023/04/24 11:40:15;;;;;;;12.43;7.00;;;14.50;63.00;;;;;;5003742;28;20466;-75
2023/04/24 11:42:43;;;;;;;11.60;6.53;;;14.20;61.90;;;;;;5004388;28;20410;-74
2023/04/24 11:45:21;;;;;;;11.32;5.90;;;14.00;63.40;;;;;;5003683;28;20068;-74
2023/04/24 11:47:46;;;;;;;9.90;6.07;;;14.30;62.60;;;;;;5000763;28;20478;-74
2023/04/24 11:50:17;;;;;;;11.52;5.65;;;14.20;62.80;;;;;;5011515;28;20080;-74
2023/04/24 11:52:45;;;;;;;11.65;6.07;;;14.10;62.90;;;;;;5008380;28;20026;-74
2023/04/24 11:55:14;;;;;;;10.95;5.57;;;14.40;62.40;;;;;;5004744;28;20390;-75
2023/04/24 11:57:44;;;;;;;14.00;6.38;;;14.30;63.20;;;;;;5003099;28;20046;-74
2023/04/24 12:00:20;;;;;;;11.95;5.70;;;14.30;62.30;;;;;;5007116;28;20050;-73
2023/04/24 12:02:46;;;;;;;11.38;5.90;;;13.90;63.00;;;;;;5005069;28;20034;-74
2023/04/24 12:05:21;;;;;;;12.27;6.90;;;13.80;62.40;;;;;;5001651;28;20093;-74
2023/04/24 12:07:47;;;;;;;10.70;5.82;;;13.90;62.60;;;;;;5008158;28;20442;-74
2023/04/24 12:10:12;;;;;;;11.98;6.00;;;14.10;62.30;;;;;;5024130;28;20026;-74
2023/04/24 12:12:38;;;;;;;10.05;5.60;;;14.30;63.20;;;;;;5004301;28;20060;-74
2023/04/24 12:15:08;;;;;;;13.77;6.20;;;14.10;62.40;;;;;;5002984;28;20109;-72
2023/04/24 12:17:36;;;;;;;10.35;5.80;;;13.70;62.30;;;;;;5003658;28;20049;-72
2023/04/24 12:20:05;;;;;;;12.68;6.18;;;13.90;64.50;;;;;;5011054;28;20370;-72
2023/04/24 12:23:03;;;;;;;10.35;5.60;;;14.00;61.80;;;;;;5019263;28;20046;-73
2023/04/24 12:25:32;;;;;;;10.32;5.57;;;13.90;60.30;;;;;;4995244;28;20112;-74
2023/04/24 12:28:04;;;;;;;11.40;5.80;;;13.90;62.10;;;;;;5010201;28;20038;-72
2023/04/24 12:30:48;;;;;;;10.60;4.85;;;13.80;61.20;;;;;;5009762;28;20018;-73
2023/04/24 12:33:21;;;;;;;9.38;4.93;;;13.80;62.70;;;;;;5010547;28;20072;-73
2023/04/24 12:35:51;;;;;;;13.48;5.72;;;13.50;61.50;;;;;;5016714;28;20018;-72
2023/04/24 12:38:21;;;;;;;9.85;4.95;;;12.60;62.90;;;;;;5014442;28;20025;-73